Startpagina
METAR-TAF:

METAR-TAF

Vliegvelden :

Luchthaven Quatro de Fevereiro

Luanda, Angola

breedte: 08-51S, lengte: 013-14E, hoogte: 74 m

Actueel weer

Dit bericht is 44 minuten geleden gemaakt, om 10:00 UTC
Wind 2 kt uit variabele richting
Temperatuur 24°C
Vochtigheid 69%
Druk 1017 hPa
Zicht: 8000 m
Verspreide wolken op 1800 ft
Geheel bewolkt op 2100 ft

METAR: FNLU 251000Z VRB02KT 8000 SCT018 OVC021 24/18 Q1017 NOSIG

Tijdstip: 11:44 (10:44 UTC)

Verwachting

Dit bericht is 5 uur en het 44 minuten geleden gemaakt, om 05:00 UTC
Verwachting geldig van 25 om 06 UTC tot 26 om 12 UTC
Wind 3 kt uit variabele richting
Zicht: 9000 m
Verspreide wolken op 2200 ft
Gebroken wolken op 4000 ft
Tijdelijke
van 25 om 06 UTC tot 25 om 10 UTC
Zicht: 5000 m
nevel
Wijzigt naar
van 25 om 12 UTC tot 25 om 15 UTC
Wind 8 kt uit het westzuidwesten

TAF: FNLU 250500Z 2506/2612 VRB03KT 9000 SCT022 BKN040 TEMPO 2506/2510 5000 BR BECMG 2512/2515 25008KT

Waarnemingen en weersverwachtingen van meer dan 4000 vliegvelden (METAR en TAF).

De beschikbare stations zijn de gele en rode punten op de kaart.

Ga met uw muis naar het station om de naam te zien.

Klik dan om waarnemingen en weersverwachtingen te zien.

kaart wijzigen: klik op de groene knoppen met een zwart kruis om in te zoomen, op de groene knop met een streepje om uit te zoomen of op de groene pijlen voor aangrenzende kaarten.


METAR-TAF: